createdAt,value
2022-11-15T00:01:34.077Z,18.50
2022-11-15T00:04:23.587Z,18.70
2022-11-15T00:07:33.321Z,18.20
2022-11-15T00:10:22.471Z,18.40
2022-11-15T00:13:12.686Z,19.20
2022-11-15T00:16:02.063Z,19.10
2022-11-15T00:18:51.291Z,18.60
2022-11-15T00:21:40.550Z,17.10
2022-11-15T00:24:29.719Z,18.40
2022-11-15T00:27:19.402Z,18.80
2022-11-15T00:30:10.034Z,20.40
2022-11-15T00:32:59.370Z,17.30
2022-11-15T00:35:49.069Z,18.50
2022-11-15T00:38:39.137Z,15.80
2022-11-15T00:41:28.253Z,17.20
2022-11-15T00:44:17.560Z,16.60
2022-11-15T00:47:07.032Z,16.20
2022-11-15T00:49:56.527Z,16.50
2022-11-15T00:52:47.111Z,17.10
2022-11-15T00:55:36.796Z,15.60
2022-11-15T00:58:26.087Z,16.10
2022-11-15T01:01:16.120Z,14.10
2022-11-15T01:04:05.722Z,14.10
2022-11-15T01:06:55.151Z,15.50
2022-11-15T01:09:44.293Z,15.10
2022-11-15T01:12:34.173Z,14.80
2022-11-15T01:15:23.291Z,15.40
2022-11-15T01:18:12.864Z,16.40
2022-11-15T01:21:02.032Z,15.70
2022-11-15T01:23:54.494Z,16.00
2022-11-15T01:26:43.865Z,17.70
2022-11-15T01:29:33.313Z,16.50
2022-11-15T01:32:22.790Z,17.20
2022-11-15T01:35:11.953Z,17.90
2022-11-15T01:38:01.632Z,14.30
2022-11-15T01:40:51.206Z,16.10
2022-11-15T01:43:41.700Z,16.90
2022-11-15T01:46:34.050Z,16.50
2022-11-15T01:49:24.867Z,15.60
2022-11-15T01:52:15.925Z,16.20
2022-11-15T01:55:10.115Z,16.60
2022-11-15T01:58:01.964Z,16.90
2022-11-15T02:00:51.853Z,16.40
2022-11-15T02:03:44.156Z,15.40
2022-11-15T02:06:33.967Z,15.50
2022-11-15T02:09:23.406Z,16.80
2022-11-15T02:12:13.830Z,18.10
2022-11-15T02:15:03.894Z,20.90
2022-11-15T02:18:00.660Z,18.80
2022-11-15T02:20:57.061Z,16.60
2022-11-15T02:24:03.569Z,16.00
2022-11-15T02:27:06.155Z,17.20
2022-11-15T02:30:22.048Z,14.20
2022-11-15T02:33:16.152Z,16.00
2022-11-15T02:36:08.373Z,17.70
2022-11-15T02:39:01.549Z,15.40
2022-11-15T02:41:53.994Z,15.20
2022-11-15T02:44:46.817Z,16.80
2022-11-15T02:47:38.183Z,16.40
2022-11-15T02:50:28.844Z,14.80
2022-11-15T02:53:18.095Z,15.70
2022-11-15T02:56:07.599Z,14.90
2022-11-15T02:59:14.411Z,16.90
2022-11-15T03:02:08.424Z,15.70
2022-11-15T03:05:00.605Z,15.80
2022-11-15T03:07:55.849Z,15.00
2022-11-15T03:10:54.406Z,17.50
2022-11-15T03:13:48.233Z,16.10
2022-11-15T03:19:28.667Z,15.70
2022-11-15T03:22:19.106Z,16.60
2022-11-15T03:25:10.828Z,14.00
2022-11-15T03:28:04.233Z,13.00
2022-11-15T03:30:54.288Z,14.90
2022-11-15T03:33:44.264Z,15.70
2022-11-15T03:36:35.574Z,15.40
2022-11-15T03:39:25.627Z,14.20
2022-11-15T03:42:20.304Z,14.90
2022-11-15T03:45:13.933Z,14.00
2022-11-15T03:48:04.935Z,14.30
2022-11-15T03:50:54.552Z,13.10
2022-11-15T03:53:44.394Z,13.80
2022-11-15T03:56:33.351Z,13.60
2022-11-15T03:59:22.619Z,13.80
2022-11-15T04:02:12.092Z,13.40
2022-11-15T04:05:01.460Z,14.90
2022-11-15T04:07:50.933Z,13.80
2022-11-15T04:10:40.163Z,13.30
2022-11-15T04:13:30.061Z,12.20
2022-11-15T04:16:19.659Z,12.20
2022-11-15T04:19:27.065Z,13.20
2022-11-15T04:22:33.885Z,13.70
2022-11-15T04:25:25.382Z,12.70
2022-11-15T04:28:17.736Z,14.80
2022-11-15T04:31:07.438Z,13.10
2022-11-15T04:33:56.799Z,12.20
2022-11-15T04:37:03.974Z,13.70
2022-11-15T04:39:53.701Z,13.10
2022-11-15T04:42:44.668Z,11.80
2022-11-15T04:45:34.013Z,13.30
2022-11-15T04:48:24.577Z,14.70
2022-11-15T04:51:13.637Z,12.70
2022-11-15T04:54:02.813Z,13.50
2022-11-15T04:56:51.916Z,12.30
2022-11-15T04:59:41.271Z,13.20
2022-11-15T05:02:50.587Z,13.50
2022-11-15T05:05:40.358Z,14.20
2022-11-15T05:08:29.518Z,14.00
2022-11-15T05:11:18.644Z,13.00
2022-11-15T05:14:07.951Z,14.10
2022-11-15T05:16:57.727Z,14.60
2022-11-15T05:19:47.218Z,13.80
2022-11-15T05:22:36.942Z,14.50
2022-11-15T05:25:26.164Z,14.60
2022-11-15T05:28:15.414Z,14.60
2022-11-15T05:31:04.572Z,13.60
2022-11-15T05:33:54.348Z,13.30
2022-11-15T05:36:44.115Z,13.40
2022-11-15T05:39:33.219Z,13.10
2022-11-15T05:42:22.676Z,14.00
2022-11-15T05:45:12.298Z,12.80
2022-11-15T05:48:02.153Z,12.80
2022-11-15T05:50:51.298Z,13.80
2022-11-15T05:53:41.078Z,12.20
2022-11-15T05:56:30.858Z,14.30
2022-11-15T05:59:20.679Z,12.90
2022-11-15T06:02:10.043Z,12.90
2022-11-15T06:04:59.483Z,11.90
2022-11-15T06:07:49.048Z,12.10
2022-11-15T06:10:38.082Z,13.30
2022-11-15T06:13:28.113Z,15.20
2022-11-15T06:16:17.772Z,11.90
2022-11-15T06:19:07.978Z,13.20
2022-11-15T06:21:57.690Z,13.20
2022-11-15T06:24:48.247Z,13.50
2022-11-15T06:27:37.778Z,13.60
2022-11-15T06:30:27.910Z,12.70
2022-11-15T06:33:17.275Z,13.40
2022-11-15T06:36:10.828Z,14.40
2022-11-15T06:39:02.671Z,14.10
2022-11-15T06:41:52.146Z,14.40
2022-11-15T06:44:41.420Z,12.00
2022-11-15T06:47:31.198Z,13.20
2022-11-15T06:50:20.870Z,12.50
2022-11-15T06:53:10.085Z,11.60
2022-11-15T06:56:02.081Z,12.20
2022-11-15T06:58:51.339Z,11.40
2022-11-15T07:01:40.896Z,11.90
2022-11-15T07:04:30.290Z,14.10
2022-11-15T07:07:19.595Z,13.40
2022-11-15T07:10:10.254Z,14.60
2022-11-15T07:12:59.337Z,16.30
2022-11-15T07:15:48.786Z,15.90
2022-11-15T07:18:38.686Z,17.30
2022-11-15T07:21:27.985Z,15.50
2022-11-15T07:24:17.417Z,16.50
2022-11-15T07:27:06.985Z,17.70
2022-11-15T07:29:56.544Z,18.10
2022-11-15T07:32:46.282Z,20.90
2022-11-15T07:35:35.395Z,18.80
2022-11-15T07:38:24.768Z,18.20
2022-11-15T07:41:14.066Z,16.20
2022-11-15T07:44:03.873Z,18.70
2022-11-15T07:46:53.514Z,16.60
2022-11-15T07:49:44.732Z,18.30
2022-11-15T07:52:33.981Z,20.40
2022-11-15T07:55:23.555Z,20.30
2022-11-15T07:58:13.913Z,23.50
2022-11-15T08:01:06.695Z,21.10
2022-11-15T08:03:56.793Z,21.20
2022-11-15T08:06:47.733Z,22.00
2022-11-15T08:09:37.304Z,22.20
2022-11-15T08:12:27.167Z,22.80
2022-11-15T08:15:16.928Z,22.20
2022-11-15T08:18:07.395Z,22.90
2022-11-15T08:21:00.474Z,23.70
2022-11-15T08:23:49.841Z,24.20
2022-11-15T08:26:40.599Z,23.00
2022-11-15T08:29:29.853Z,23.30
2022-11-15T08:32:18.996Z,27.40
2022-11-15T08:35:09.727Z,25.40
2022-11-15T08:37:59.046Z,26.80
2022-11-15T08:40:48.022Z,24.80
2022-11-15T08:43:37.209Z,25.00
2022-11-15T08:46:26.393Z,28.10
2022-11-15T08:49:15.668Z,29.10
2022-11-15T08:52:05.495Z,26.10
2022-11-15T08:54:54.858Z,24.70
2022-11-15T08:57:44.235Z,25.60
2022-11-15T09:00:34.540Z,27.20
2022-11-15T09:03:24.292Z,28.60
2022-11-15T09:06:13.293Z,26.60
2022-11-15T09:09:02.627Z,25.80
2022-11-15T09:11:52.007Z,29.60
2022-11-15T09:14:41.574Z,28.10
2022-11-15T09:17:30.836Z,28.90
2022-11-15T09:20:20.219Z,29.60
2022-11-15T09:23:09.618Z,27.50
2022-11-15T09:26:02.419Z,28.70
2022-11-15T09:28:51.388Z,29.00
2022-11-15T09:31:40.551Z,28.70
2022-11-15T09:34:29.974Z,29.80
2022-11-15T09:37:18.944Z,34.10
2022-11-15T09:40:11.539Z,30.30
2022-11-15T09:43:07.354Z,32.50
2022-11-15T09:46:02.250Z,29.80
2022-11-15T09:48:55.684Z,28.10
2022-11-15T09:51:47.886Z,28.50
2022-11-15T09:54:51.517Z,26.00
2022-11-15T09:57:16.612Z,30.00
2022-11-15T10:00:38.827Z,29.60
2022-11-15T10:03:05.141Z,28.80
2022-11-15T10:05:39.602Z,26.40
2022-11-15T10:08:15.038Z,26.70
2022-11-15T10:10:48.182Z,28.10
2022-11-15T10:13:21.471Z,26.60
2022-11-15T10:18:26.339Z,21.00
2022-11-15T10:20:59.646Z,19.40
2022-11-15T10:23:30.453Z,17.10
2022-11-15T10:26:06.589Z,20.60
2022-11-15T10:28:37.547Z,18.70
2022-11-15T10:31:23.365Z,20.10
2022-11-15T10:33:53.853Z,18.00
2022-11-15T10:36:27.026Z,18.60
2022-11-15T10:39:00.757Z,17.50
2022-11-15T10:41:37.832Z,16.70
2022-11-15T10:44:13.389Z,18.80
2022-11-15T10:46:47.164Z,17.50
2022-11-15T10:49:18.964Z,17.90
2022-11-15T10:51:51.467Z,19.90
2022-11-15T10:54:24.706Z,22.20
2022-11-15T10:56:58.775Z,19.60
2022-11-15T10:59:34.825Z,19.30
2022-11-15T11:02:22.302Z,18.20
2022-11-15T11:04:53.254Z,17.70
2022-11-15T11:07:25.076Z,18.80
2022-11-15T11:10:00.975Z,19.00
2022-11-15T11:12:33.436Z,19.60
2022-11-15T11:15:11.649Z,18.70
2022-11-15T11:17:50.569Z,18.80
2022-11-15T11:20:24.273Z,18.30
2022-11-15T11:22:59.977Z,17.90
2022-11-15T11:25:35.073Z,18.70
2022-11-15T11:28:15.145Z,19.60
2022-11-15T11:30:49.317Z,19.40
2022-11-15T11:33:23.021Z,20.80
2022-11-15T11:36:01.950Z,22.00
2022-11-15T11:38:41.893Z,18.40
2022-11-15T11:41:15.771Z,17.90
2022-11-15T11:43:51.618Z,17.80
2022-11-15T11:46:32.113Z,18.70
2022-11-15T11:49:05.517Z,18.20
2022-11-15T12:04:51.028Z,19.80
2022-11-15T12:07:24.435Z,20.40
2022-11-15T12:09:58.796Z,21.70
2022-11-15T12:12:34.542Z,21.50
2022-11-15T12:15:06.724Z,20.20
2022-11-15T12:17:38.355Z,21.90
2022-11-15T12:20:17.910Z,22.30
2022-11-15T12:22:51.812Z,20.70
2022-11-15T12:25:23.352Z,21.40
2022-11-15T12:27:57.582Z,21.00
2022-11-15T12:30:43.168Z,21.70
2022-11-15T12:33:27.295Z,22.50
2022-11-15T12:36:01.989Z,22.00
2022-11-15T12:38:49.869Z,23.30
2022-11-15T12:41:21.672Z,23.00
2022-11-15T12:43:52.659Z,25.50
2022-11-15T12:46:47.293Z,24.80
2022-11-15T12:49:43.888Z,24.80
2022-11-15T12:52:14.652Z,25.20
2022-11-15T12:54:56.613Z,27.40
2022-11-15T12:57:38.307Z,26.20
2022-11-15T13:00:26.663Z,25.80
2022-11-15T13:03:19.001Z,25.40
2022-11-15T13:06:00.363Z,24.90
2022-11-15T13:08:38.984Z,26.30
2022-11-15T13:11:26.640Z,27.00
2022-11-15T13:13:58.076Z,26.60
2022-11-15T13:16:28.810Z,25.10
2022-11-15T13:19:00.927Z,26.10
2022-11-15T13:21:48.785Z,25.90
2022-11-15T13:24:19.692Z,25.80
2022-11-15T13:26:50.989Z,27.10
2022-11-15T13:29:22.241Z,24.40
2022-11-15T13:31:53.055Z,23.50
2022-11-15T13:37:33.680Z,23.30
2022-11-15T13:40:21.494Z,26.70
2022-11-15T13:42:52.175Z,25.40
2022-11-15T13:45:23.412Z,25.60
2022-11-15T13:48:07.368Z,24.20
2022-11-15T14:04:20.888Z,24.30
2022-11-15T14:06:53.130Z,24.40
2022-11-15T14:09:37.454Z,23.60
2022-11-15T14:12:26.118Z,27.40
2022-11-15T14:14:56.935Z,27.50
2022-11-15T14:17:38.443Z,26.70
2022-11-15T14:20:29.635Z,26.40
2022-11-15T14:23:01.805Z,25.70
2022-11-15T14:25:33.187Z,26.80
2022-11-15T14:28:14.934Z,27.30
2022-11-15T14:30:48.380Z,27.10
2022-11-15T14:33:24.292Z,25.00
2022-11-15T14:35:55.742Z,25.40
2022-11-15T14:38:26.882Z,24.20
2022-11-15T14:40:58.085Z,25.70
2022-11-15T14:43:28.764Z,27.40
2022-11-15T14:45:59.552Z,27.90
2022-11-15T14:48:30.432Z,28.00
2022-11-15T14:51:01.981Z,25.60
2022-11-15T14:53:32.720Z,25.00
2022-11-15T14:56:03.451Z,24.80
2022-11-15T14:58:34.658Z,26.20
2022-11-15T15:01:13.216Z,25.80
2022-11-15T15:03:45.285Z,27.30
2022-11-15T15:06:18.245Z,29.10
2022-11-15T15:08:51.650Z,25.90
2022-11-15T15:11:24.347Z,27.20
2022-11-15T15:13:58.146Z,24.30
2022-11-15T15:16:28.974Z,23.80
2022-11-15T15:18:59.612Z,27.30
2022-11-15T15:21:36.761Z,28.90
2022-11-15T15:24:08.346Z,24.90
2022-11-15T15:26:40.301Z,25.60
2022-11-15T15:29:11.142Z,26.20
2022-11-15T15:31:41.975Z,24.30
2022-11-15T15:34:16.889Z,26.30
2022-11-15T15:36:47.957Z,27.20
2022-11-15T15:39:18.479Z,26.20
2022-11-15T15:41:52.269Z,27.10
2022-11-15T15:44:26.106Z,25.30
2022-11-15T15:46:59.169Z,31.90
2022-11-15T15:49:30.013Z,30.90
2022-11-15T15:52:01.054Z,29.50
2022-11-15T15:54:31.687Z,28.70
2022-11-15T15:57:02.436Z,27.00
2022-11-15T15:59:33.720Z,26.90
2022-11-15T16:02:04.367Z,26.70
2022-11-15T16:04:35.227Z,29.40
2022-11-15T16:07:05.779Z,29.00
2022-11-15T16:09:54.730Z,28.50
2022-11-15T16:12:25.650Z,26.60
2022-11-15T16:14:56.796Z,24.70
2022-11-15T16:17:33.768Z,25.50
2022-11-15T16:20:05.292Z,25.70
2022-11-15T16:22:36.136Z,27.60
2022-11-15T16:25:07.463Z,28.60
2022-11-15T16:27:39.718Z,28.50
2022-11-15T16:30:14.304Z,26.70
2022-11-15T16:32:45.162Z,25.70
2022-11-15T16:35:16.644Z,25.70
2022-11-15T16:37:47.727Z,25.80
2022-11-15T16:40:25.427Z,26.70
2022-11-15T16:42:58.144Z,28.30
2022-11-15T16:45:29.554Z,28.80
2022-11-15T16:48:00.299Z,26.60
2022-11-15T16:50:33.168Z,26.00
2022-11-15T16:53:04.314Z,28.20
2022-11-15T16:55:35.051Z,27.10
2022-11-15T16:58:05.676Z,30.10
2022-11-15T17:00:36.216Z,29.50
2022-11-15T17:03:07.382Z,27.00
2022-11-15T17:05:38.594Z,26.60
2022-11-15T17:08:09.908Z,26.80
2022-11-15T17:10:41.933Z,25.70
2022-11-15T17:13:13.573Z,27.80
2022-11-15T17:15:44.959Z,27.90
2022-11-15T17:18:16.043Z,27.90
2022-11-15T17:20:46.526Z,27.40
2022-11-15T17:23:17.758Z,27.10
2022-11-15T17:25:48.449Z,26.90
2022-11-15T17:28:19.099Z,26.60
2022-11-15T17:30:49.547Z,26.80
2022-11-15T17:33:20.402Z,29.40
2022-11-15T17:35:58.259Z,27.50
2022-11-15T17:38:29.273Z,26.20
2022-11-15T17:41:04.154Z,25.40
2022-11-15T17:43:35.465Z,24.60
2022-11-15T17:46:07.555Z,24.40
2022-11-15T17:48:38.425Z,27.30
2022-11-15T17:51:10.575Z,27.80
2022-11-15T17:53:42.124Z,26.80
2022-11-15T17:56:14.498Z,28.10
2022-11-15T17:58:48.672Z,27.60
2022-11-15T18:01:20.391Z,27.40
2022-11-15T18:03:51.236Z,27.60
2022-11-15T18:06:22.712Z,27.40
2022-11-15T18:08:53.795Z,30.30
2022-11-15T18:11:25.412Z,31.10
2022-11-15T18:13:57.007Z,33.90
2022-11-15T18:16:28.622Z,31.90
2022-11-15T18:19:00.323Z,30.30
2022-11-15T18:21:34.099Z,30.30
2022-11-15T18:24:05.315Z,33.20
2022-11-15T18:26:35.954Z,32.20
2022-11-15T18:29:06.375Z,34.80
2022-11-15T18:31:36.925Z,31.20
2022-11-15T18:34:07.426Z,31.20
2022-11-15T18:36:39.144Z,32.10
2022-11-15T18:39:16.440Z,30.70
2022-11-15T18:41:47.764Z,30.60
2022-11-15T18:44:18.511Z,32.10
2022-11-15T18:46:49.759Z,34.70
2022-11-15T18:49:20.854Z,34.50
2022-11-15T18:51:51.367Z,32.60
2022-11-15T18:54:25.528Z,30.50
2022-11-15T18:56:59.090Z,32.00
2022-11-15T18:59:30.403Z,30.80
2022-11-15T19:02:00.837Z,31.40
2022-11-15T19:04:31.592Z,32.40
2022-11-15T19:07:02.286Z,36.00
2022-11-15T19:09:33.177Z,35.70
2022-11-15T19:12:03.577Z,32.40
2022-11-15T19:14:34.560Z,32.30
2022-11-15T19:17:05.247Z,32.10
2022-11-15T19:19:36.132Z,31.70
2022-11-15T19:22:06.612Z,30.90
2022-11-15T19:24:37.147Z,35.10
2022-11-15T19:27:07.671Z,37.10
2022-11-15T19:29:38.297Z,37.80
2022-11-15T19:32:09.135Z,37.70
2022-11-15T19:34:41.856Z,37.30
2022-11-15T19:37:12.749Z,37.50
2022-11-15T19:39:43.484Z,30.90
2022-11-15T19:42:14.734Z,34.50
2022-11-15T19:44:45.277Z,36.00
2022-11-15T19:47:16.102Z,36.30
2022-11-15T19:49:47.740Z,36.00
2022-11-15T19:52:19.251Z,34.60
2022-11-15T19:54:49.731Z,32.10
2022-11-15T19:57:20.671Z,32.30
2022-11-15T19:59:51.193Z,32.20
2022-11-15T20:02:21.860Z,31.40
2022-11-15T20:04:52.427Z,34.40
2022-11-15T20:07:24.391Z,35.70
2022-11-15T20:09:55.118Z,36.90
2022-11-15T20:12:25.926Z,33.30
2022-11-15T20:14:56.719Z,35.20
2022-11-15T20:17:27.764Z,33.50
2022-11-15T20:19:59.942Z,35.70
2022-11-15T20:22:30.659Z,34.80
2022-11-15T20:25:01.394Z,36.10
2022-11-15T20:27:32.122Z,35.70
2022-11-15T20:30:03.169Z,35.00
2022-11-15T20:32:33.846Z,37.30
2022-11-15T20:35:04.630Z,37.70
2022-11-15T20:37:36.342Z,34.30
2022-11-15T20:40:07.740Z,32.70
2022-11-15T20:42:38.412Z,38.90
2022-11-15T20:45:09.929Z,43.80
2022-11-15T20:47:40.755Z,46.40
2022-11-15T20:50:40.338Z,41.10
2022-11-15T20:53:02.396Z,38.70
2022-11-15T20:55:33.070Z,38.60
2022-11-15T20:58:03.671Z,36.90
2022-11-15T21:00:34.227Z,37.30
2022-11-15T21:03:07.384Z,36.90
2022-11-15T21:08:07.683Z,41.40
2022-11-15T21:10:55.757Z,40.60
2022-11-15T21:13:27.204Z,39.40
2022-11-15T21:15:58.737Z,40.40
2022-11-15T21:18:29.282Z,40.40
2022-11-15T21:21:04.881Z,40.60
2022-11-15T21:23:36.231Z,42.90
2022-11-15T21:26:06.912Z,45.10
2022-11-15T21:28:37.674Z,43.80
2022-11-15T21:31:08.323Z,42.60
2022-11-15T21:33:39.121Z,39.90
2022-11-15T21:36:10.487Z,38.40
2022-11-15T21:38:41.086Z,39.00
2022-11-15T21:41:11.793Z,39.10
2022-11-15T21:43:42.726Z,40.80
2022-11-15T21:46:13.387Z,45.10
2022-11-15T21:48:44.029Z,50.60
2022-11-15T21:51:14.686Z,48.90
2022-11-15T21:53:45.587Z,49.60
2022-11-15T21:56:16.427Z,48.20
2022-11-15T21:58:47.404Z,51.20
2022-11-15T22:01:35.570Z,49.10
2022-11-15T22:04:06.822Z,46.60
2022-11-15T22:06:37.648Z,50.10
2022-11-15T22:09:08.830Z,52.20
2022-11-15T22:11:39.374Z,52.90
2022-11-15T22:14:10.101Z,51.00
2022-11-15T22:16:40.584Z,48.60
2022-11-15T22:19:11.255Z,46.30
2022-11-15T22:21:42.144Z,47.00
2022-11-15T22:24:12.929Z,49.30
2022-11-15T22:26:43.406Z,49.10
2022-11-15T22:29:13.889Z,45.50
2022-11-15T22:31:44.548Z,45.20
2022-11-15T22:34:15.042Z,41.50
2022-11-15T22:37:13.232Z,39.30
2022-11-15T22:39:36.880Z,35.90
2022-11-15T22:42:07.721Z,38.10
2022-11-15T22:44:38.350Z,41.20
2022-11-15T22:47:10.116Z,38.00
2022-11-15T22:49:42.580Z,36.40
2022-11-15T22:52:14.033Z,41.10
2022-11-15T22:54:44.567Z,40.70
2022-11-15T22:57:15.527Z,37.80
2022-11-15T22:59:46.126Z,44.00
2022-11-15T23:02:17.335Z,43.80
2022-11-15T23:04:47.849Z,48.80
2022-11-15T23:07:18.508Z,51.50
2022-11-15T23:09:52.167Z,57.70
2022-11-15T23:12:40.789Z,59.70
2022-11-15T23:15:11.732Z,56.00
2022-11-15T23:17:42.793Z,57.40
2022-11-15T23:20:36.720Z,58.40
2022-11-15T23:23:04.921Z,52.80
2022-11-15T23:25:35.447Z,58.70
2022-11-15T23:28:06.719Z,42.40
2022-11-15T23:30:55.414Z,42.00
2022-11-15T23:33:44.077Z,42.60
2022-11-15T23:36:14.631Z,42.30
2022-11-15T23:38:45.311Z,43.50
2022-11-15T23:41:15.821Z,44.20
2022-11-15T23:43:46.620Z,43.40
2022-11-15T23:46:17.561Z,42.70
2022-11-15T23:48:48.494Z,39.90
2022-11-15T23:51:18.946Z,40.00
2022-11-15T23:53:49.704Z,41.00
2022-11-15T23:56:20.935Z,39.20
2022-11-15T23:58:51.740Z,40.10
